sensor_id;sensor_type;location;lat;lon;timestamp;P1;durP1;ratioP1;P2;durP2;ratioP2
15096;SDS011;7649;52.084;7.478;2022-12-05T00:01:17;31.43;;;21.53;;
15096;SDS011;7649;52.084;7.478;2022-12-05T00:03:45;38.10;;;22.97;;
15096;SDS011;7649;52.084;7.478;2022-12-05T00:06:15;37.77;;;23.13;;
15096;SDS011;7649;52.084;7.478;2022-12-05T00:08:43;36.00;;;22.30;;
15096;SDS011;7649;52.084;7.478;2022-12-05T00:11:11;36.73;;;22.67;;
15096;SDS011;7649;52.084;7.478;2022-12-05T00:13:40;35.33;;;21.67;;
15096;SDS011;7649;52.084;7.478;2022-12-05T00:16:09;35.87;;;22.33;;
15096;SDS011;7649;52.084;7.478;2022-12-05T00:18:37;31.73;;;21.27;;
15096;SDS011;7649;52.084;7.478;2022-12-05T00:21:06;35.43;;;21.90;;
15096;SDS011;7649;52.084;7.478;2022-12-05T00:23:36;36.37;;;22.87;;
15096;SDS011;7649;52.084;7.478;2022-12-05T00:26:04;32.70;;;20.73;;
15096;SDS011;7649;52.084;7.478;2022-12-05T00:28:33;31.13;;;20.80;;
15096;SDS011;7649;52.084;7.478;2022-12-05T00:31:01;33.73;;;21.40;;
15096;SDS011;7649;52.084;7.478;2022-12-05T00:33:30;35.10;;;21.50;;
15096;SDS011;7649;52.084;7.478;2022-12-05T00:36:00;33.77;;;21.63;;
15096;SDS011;7649;52.084;7.478;2022-12-05T00:38:28;33.60;;;21.00;;
15096;SDS011;7649;52.084;7.478;2022-12-05T00:41:02;33.43;;;21.40;;
15096;SDS011;7649;52.084;7.478;2022-12-05T00:43:30;32.00;;;21.70;;
15096;SDS011;7649;52.084;7.478;2022-12-05T00:46:00;33.03;;;21.07;;
15096;SDS011;7649;52.084;7.478;2022-12-05T00:48:28;33.17;;;21.50;;
15096;SDS011;7649;52.084;7.478;2022-12-05T00:51:00;29.07;;;20.03;;
15096;SDS011;7649;52.084;7.478;2022-12-05T00:53:28;32.33;;;21.77;;
15096;SDS011;7649;52.084;7.478;2022-12-05T00:56:01;29.17;;;20.67;;
15096;SDS011;7649;52.084;7.478;2022-12-05T00:58:30;29.73;;;19.47;;
15096;SDS011;7649;52.084;7.478;2022-12-05T01:01:04;32.87;;;20.40;;
15096;SDS011;7649;52.084;7.478;2022-12-05T01:03:32;28.57;;;19.67;;
15096;SDS011;7649;52.084;7.478;2022-12-05T01:06:01;29.77;;;20.00;;
15096;SDS011;7649;52.084;7.478;2022-12-05T01:08:31;31.07;;;20.40;;
15096;SDS011;7649;52.084;7.478;2022-12-05T01:11:01;29.67;;;19.83;;
15096;SDS011;7649;52.084;7.478;2022-12-05T01:13:30;31.70;;;20.50;;
15096;SDS011;7649;52.084;7.478;2022-12-05T01:15:59;32.07;;;20.57;;
15096;SDS011;7649;52.084;7.478;2022-12-05T01:18:27;28.73;;;19.50;;
15096;SDS011;7649;52.084;7.478;2022-12-05T01:20:56;32.20;;;21.50;;
15096;SDS011;7649;52.084;7.478;2022-12-05T01:23:25;28.00;;;19.67;;
15096;SDS011;7649;52.084;7.478;2022-12-05T01:25:54;29.00;;;20.53;;
15096;SDS011;7649;52.084;7.478;2022-12-05T01:28:23;31.90;;;20.83;;
15096;SDS011;7649;52.084;7.478;2022-12-05T01:30:51;29.50;;;20.73;;
15096;SDS011;7649;52.084;7.478;2022-12-05T01:33:20;29.70;;;20.00;;
15096;SDS011;7649;52.084;7.478;2022-12-05T01:35:48;26.50;;;19.57;;
15096;SDS011;7649;52.084;7.478;2022-12-05T01:38:16;28.87;;;20.40;;
15096;SDS011;7649;52.084;7.478;2022-12-05T01:40:44;31.37;;;20.23;;
15096;SDS011;7649;52.084;7.478;2022-12-05T01:43:13;34.93;;;20.20;;
15096;SDS011;7649;52.084;7.478;2022-12-05T01:45:45;30.03;;;21.10;;
15096;SDS011;7649;52.084;7.478;2022-12-05T01:48:15;29.57;;;19.53;;
15096;SDS011;7649;52.084;7.478;2022-12-05T01:50:45;31.77;;;20.37;;
15096;SDS011;7649;52.084;7.478;2022-12-05T01:53:14;31.83;;;20.97;;
15096;SDS011;7649;52.084;7.478;2022-12-05T01:55:42;33.43;;;20.37;;
15096;SDS011;7649;52.084;7.478;2022-12-05T01:58:11;30.10;;;20.97;;
15096;SDS011;7649;52.084;7.478;2022-12-05T02:00:40;30.40;;;19.87;;
15096;SDS011;7649;52.084;7.478;2022-12-05T02:03:10;30.50;;;21.23;;
15096;SDS011;7649;52.084;7.478;2022-12-05T02:05:39;28.90;;;19.80;;
15096;SDS011;7649;52.084;7.478;2022-12-05T02:08:08;29.30;;;19.73;;
15096;SDS011;7649;52.084;7.478;2022-12-05T02:10:38;31.07;;;20.90;;
15096;SDS011;7649;52.084;7.478;2022-12-05T02:13:10;29.87;;;20.10;;
15096;SDS011;7649;52.084;7.478;2022-12-05T02:15:42;30.07;;;21.13;;
15096;SDS011;7649;52.084;7.478;2022-12-05T02:18:23;34.50;;;21.17;;
15096;SDS011;7649;52.084;7.478;2022-12-05T02:20:59;31.17;;;20.03;;
15096;SDS011;7649;52.084;7.478;2022-12-05T02:23:35;29.53;;;19.90;;
15096;SDS011;7649;52.084;7.478;2022-12-05T02:28:55;29.87;;;20.30;;
15096;SDS011;7649;52.084;7.478;2022-12-05T02:31:31;31.53;;;20.80;;
15096;SDS011;7649;52.084;7.478;2022-12-05T02:34:03;29.17;;;20.37;;
15096;SDS011;7649;52.084;7.478;2022-12-05T02:36:34;29.23;;;20.50;;
15096;SDS011;7649;52.084;7.478;2022-12-05T02:39:06;28.37;;;20.07;;
15096;SDS011;7649;52.084;7.478;2022-12-05T02:41:39;31.57;;;20.63;;
15096;SDS011;7649;52.084;7.478;2022-12-05T02:44:09;27.67;;;19.77;;
15096;SDS011;7649;52.084;7.478;2022-12-05T02:46:41;32.07;;;20.70;;
15096;SDS011;7649;52.084;7.478;2022-12-05T02:49:10;29.43;;;20.53;;
15096;SDS011;7649;52.084;7.478;2022-12-05T02:51:40;29.27;;;20.00;;
15096;SDS011;7649;52.084;7.478;2022-12-05T02:54:10;28.97;;;20.20;;
15096;SDS011;7649;52.084;7.478;2022-12-05T02:56:39;29.50;;;20.77;;
15096;SDS011;7649;52.084;7.478;2022-12-05T02:59:09;29.83;;;19.97;;
15096;SDS011;7649;52.084;7.478;2022-12-05T03:01:37;30.80;;;21.13;;
15096;SDS011;7649;52.084;7.478;2022-12-05T03:04:08;29.47;;;19.77;;
15096;SDS011;7649;52.084;7.478;2022-12-05T03:06:40;30.83;;;20.60;;
15096;SDS011;7649;52.084;7.478;2022-12-05T03:09:10;29.40;;;20.30;;
15096;SDS011;7649;52.084;7.478;2022-12-05T03:11:41;28.80;;;19.57;;
15096;SDS011;7649;52.084;7.478;2022-12-05T03:14:12;29.27;;;20.27;;
15096;SDS011;7649;52.084;7.478;2022-12-05T03:16:41;31.37;;;20.53;;
15096;SDS011;7649;52.084;7.478;2022-12-05T03:19:13;29.00;;;19.77;;
15096;SDS011;7649;52.084;7.478;2022-12-05T03:21:44;31.97;;;19.77;;
15096;SDS011;7649;52.084;7.478;2022-12-05T03:24:15;31.80;;;20.83;;
15096;SDS011;7649;52.084;7.478;2022-12-05T03:26:45;29.67;;;19.37;;
15096;SDS011;7649;52.084;7.478;2022-12-05T03:29:23;29.53;;;19.07;;
15096;SDS011;7649;52.084;7.478;2022-12-05T03:31:54;30.47;;;20.87;;
15096;SDS011;7649;52.084;7.478;2022-12-05T03:34:31;29.37;;;19.97;;
15096;SDS011;7649;52.084;7.478;2022-12-05T03:37:01;29.47;;;20.03;;
15096;SDS011;7649;52.084;7.478;2022-12-05T03:39:32;28.20;;;18.67;;
15096;SDS011;7649;52.084;7.478;2022-12-05T03:42:05;29.23;;;19.73;;
15096;SDS011;7649;52.084;7.478;2022-12-05T03:44:37;27.93;;;19.20;;
15096;SDS011;7649;52.084;7.478;2022-12-05T03:47:09;28.17;;;19.33;;
15096;SDS011;7649;52.084;7.478;2022-12-05T03:49:42;28.80;;;18.30;;
15096;SDS011;7649;52.084;7.478;2022-12-05T03:52:12;26.60;;;18.00;;
15096;SDS011;7649;52.084;7.478;2022-12-05T03:54:43;26.87;;;18.60;;
15096;SDS011;7649;52.084;7.478;2022-12-05T03:57:13;27.73;;;19.63;;
15096;SDS011;7649;52.084;7.478;2022-12-05T03:59:43;29.47;;;19.63;;
15096;SDS011;7649;52.084;7.478;2022-12-05T04:02:14;25.00;;;17.77;;
15096;SDS011;7649;52.084;7.478;2022-12-05T04:04:47;24.40;;;17.63;;
15096;SDS011;7649;52.084;7.478;2022-12-05T04:07:18;26.63;;;18.93;;
15096;SDS011;7649;52.084;7.478;2022-12-05T04:09:48;24.93;;;17.57;;
15096;SDS011;7649;52.084;7.478;2022-12-05T04:12:18;28.90;;;18.43;;
15096;SDS011;7649;52.084;7.478;2022-12-05T04:14:49;25.37;;;18.17;;
15096;SDS011;7649;52.084;7.478;2022-12-05T04:17:20;24.83;;;17.17;;
15096;SDS011;7649;52.084;7.478;2022-12-05T04:19:53;24.23;;;17.17;;
15096;SDS011;7649;52.084;7.478;2022-12-05T04:22:41;26.73;;;17.10;;
15096;SDS011;7649;52.084;7.478;2022-12-05T04:25:10;25.30;;;17.40;;
15096;SDS011;7649;52.084;7.478;2022-12-05T04:27:58;25.00;;;17.57;;
15096;SDS011;7649;52.084;7.478;2022-12-05T04:30:29;23.67;;;16.43;;
15096;SDS011;7649;52.084;7.478;2022-12-05T04:32:59;23.73;;;16.93;;
15096;SDS011;7649;52.084;7.478;2022-12-05T04:35:31;24.23;;;16.57;;
15096;SDS011;7649;52.084;7.478;2022-12-05T04:38:01;23.83;;;17.07;;
15096;SDS011;7649;52.084;7.478;2022-12-05T04:40:32;23.90;;;16.43;;
15096;SDS011;7649;52.084;7.478;2022-12-05T04:43:02;22.50;;;15.70;;
15096;SDS011;7649;52.084;7.478;2022-12-05T04:45:31;24.30;;;17.23;;
15096;SDS011;7649;52.084;7.478;2022-12-05T04:48:00;22.47;;;17.43;;
15096;SDS011;7649;52.084;7.478;2022-12-05T04:50:31;20.83;;;15.80;;
15096;SDS011;7649;52.084;7.478;2022-12-05T04:53:00;24.67;;;17.07;;
15096;SDS011;7649;52.084;7.478;2022-12-05T04:55:30;24.43;;;17.63;;
15096;SDS011;7649;52.084;7.478;2022-12-05T04:58:01;21.33;;;16.53;;
15096;SDS011;7649;52.084;7.478;2022-12-05T05:00:30;22.40;;;16.43;;
15096;SDS011;7649;52.084;7.478;2022-12-05T05:02:59;22.13;;;16.10;;
15096;SDS011;7649;52.084;7.478;2022-12-05T05:05:33;24.03;;;17.00;;
15096;SDS011;7649;52.084;7.478;2022-12-05T05:08:04;23.60;;;16.73;;
15096;SDS011;7649;52.084;7.478;2022-12-05T05:10:35;26.23;;;17.77;;
15096;SDS011;7649;52.084;7.478;2022-12-05T05:13:04;23.73;;;16.80;;
15096;SDS011;7649;52.084;7.478;2022-12-05T05:15:33;22.33;;;16.70;;
15096;SDS011;7649;52.084;7.478;2022-12-05T05:18:01;21.20;;;16.20;;
15096;SDS011;7649;52.084;7.478;2022-12-05T05:20:29;26.77;;;16.47;;
15096;SDS011;7649;52.084;7.478;2022-12-05T05:22:59;24.80;;;17.03;;
15096;SDS011;7649;52.084;7.478;2022-12-05T05:25:27;20.53;;;15.53;;
15096;SDS011;7649;52.084;7.478;2022-12-05T05:27:56;21.70;;;15.83;;
15096;SDS011;7649;52.084;7.478;2022-12-05T05:30:24;19.93;;;15.43;;
15096;SDS011;7649;52.084;7.478;2022-12-05T05:32:53;22.03;;;17.20;;
15096;SDS011;7649;52.084;7.478;2022-12-05T05:35:21;22.67;;;16.73;;
15096;SDS011;7649;52.084;7.478;2022-12-05T05:40:27;22.13;;;16.80;;
15096;SDS011;7649;52.084;7.478;2022-12-05T05:42:55;21.40;;;15.77;;
15096;SDS011;7649;52.084;7.478;2022-12-05T05:45:23;21.37;;;16.27;;
15096;SDS011;7649;52.084;7.478;2022-12-05T05:47:51;22.03;;;15.30;;
15096;SDS011;7649;52.084;7.478;2022-12-05T05:50:20;16.83;;;14.10;;
15096;SDS011;7649;52.084;7.478;2022-12-05T05:52:48;20.27;;;15.07;;
15096;SDS011;7649;52.084;7.478;2022-12-05T05:55:16;21.93;;;15.20;;
15096;SDS011;7649;52.084;7.478;2022-12-05T05:57:46;18.53;;;14.47;;
15096;SDS011;7649;52.084;7.478;2022-12-05T06:00:15;17.67;;;14.60;;
15096;SDS011;7649;52.084;7.478;2022-12-05T06:02:43;18.30;;;14.27;;
15096;SDS011;7649;52.084;7.478;2022-12-05T06:05:11;16.63;;;13.23;;
15096;SDS011;7649;52.084;7.478;2022-12-05T06:07:40;18.77;;;13.87;;
15096;SDS011;7649;52.084;7.478;2022-12-05T06:10:08;17.53;;;13.60;;
15096;SDS011;7649;52.084;7.478;2022-12-05T06:12:36;17.73;;;14.00;;
15096;SDS011;7649;52.084;7.478;2022-12-05T06:15:06;16.67;;;13.80;;
15096;SDS011;7649;52.084;7.478;2022-12-05T06:17:35;19.13;;;14.70;;
15096;SDS011;7649;52.084;7.478;2022-12-05T06:20:03;17.27;;;13.53;;
15096;SDS011;7649;52.084;7.478;2022-12-05T06:22:32;17.00;;;13.10;;
15096;SDS011;7649;52.084;7.478;2022-12-05T06:25:01;17.73;;;13.73;;
15096;SDS011;7649;52.084;7.478;2022-12-05T06:27:29;18.20;;;13.33;;
15096;SDS011;7649;52.084;7.478;2022-12-05T06:29:58;16.13;;;13.33;;
15096;SDS011;7649;52.084;7.478;2022-12-05T06:32:28;19.80;;;14.10;;
15096;SDS011;7649;52.084;7.478;2022-12-05T06:34:56;15.77;;;13.37;;
15096;SDS011;7649;52.084;7.478;2022-12-05T06:37:24;17.97;;;14.10;;
15096;SDS011;7649;52.084;7.478;2022-12-05T06:39:53;17.73;;;13.23;;
15096;SDS011;7649;52.084;7.478;2022-12-05T06:42:21;16.50;;;14.37;;
15096;SDS011;7649;52.084;7.478;2022-12-05T06:44:49;16.40;;;13.47;;
15096;SDS011;7649;52.084;7.478;2022-12-05T06:47:18;15.63;;;13.33;;
15096;SDS011;7649;52.084;7.478;2022-12-05T06:49:47;19.10;;;14.87;;
15096;SDS011;7649;52.084;7.478;2022-12-05T06:52:16;19.87;;;14.80;;
15096;SDS011;7649;52.084;7.478;2022-12-05T06:54:44;20.73;;;15.60;;
15096;SDS011;7649;52.084;7.478;2022-12-05T06:57:12;20.50;;;15.07;;
15096;SDS011;7649;52.084;7.478;2022-12-05T06:59:41;16.70;;;13.47;;
15096;SDS011;7649;52.084;7.478;2022-12-05T07:02:10;20.47;;;13.90;;
15096;SDS011;7649;52.084;7.478;2022-12-05T07:04:38;17.03;;;13.17;;
15096;SDS011;7649;52.084;7.478;2022-12-05T07:07:08;19.63;;;14.20;;
15096;SDS011;7649;52.084;7.478;2022-12-05T07:09:38;20.43;;;15.10;;
15096;SDS011;7649;52.084;7.478;2022-12-05T07:12:14;18.13;;;13.63;;
15096;SDS011;7649;52.084;7.478;2022-12-05T07:14:42;19.23;;;15.60;;
15096;SDS011;7649;52.084;7.478;2022-12-05T07:17:14;19.20;;;15.17;;
15096;SDS011;7649;52.084;7.478;2022-12-05T07:19:42;19.77;;;15.03;;
15096;SDS011;7649;52.084;7.478;2022-12-05T07:22:12;20.13;;;15.40;;
15096;SDS011;7649;52.084;7.478;2022-12-05T07:24:41;18.17;;;14.70;;
15096;SDS011;7649;52.084;7.478;2022-12-05T07:27:10;21.37;;;15.80;;
15096;SDS011;7649;52.084;7.478;2022-12-05T07:29:38;17.87;;;14.50;;
15096;SDS011;7649;52.084;7.478;2022-12-05T07:32:06;19.80;;;15.37;;
15096;SDS011;7649;52.084;7.478;2022-12-05T07:34:35;18.60;;;14.73;;
15096;SDS011;7649;52.084;7.478;2022-12-05T07:37:04;17.03;;;13.07;;
15096;SDS011;7649;52.084;7.478;2022-12-05T07:39:34;20.60;;;14.83;;
15096;SDS011;7649;52.084;7.478;2022-12-05T07:42:03;19.67;;;15.07;;
15096;SDS011;7649;52.084;7.478;2022-12-05T07:44:31;19.50;;;14.20;;
15096;SDS011;7649;52.084;7.478;2022-12-05T07:47:00;17.27;;;14.20;;
15096;SDS011;7649;52.084;7.478;2022-12-05T07:49:28;16.83;;;13.33;;
15096;SDS011;7649;52.084;7.478;2022-12-05T07:51:56;18.23;;;13.43;;
15096;SDS011;7649;52.084;7.478;2022-12-05T07:54:24;16.60;;;13.67;;
15096;SDS011;7649;52.084;7.478;2022-12-05T07:56:54;16.23;;;13.70;;
15096;SDS011;7649;52.084;7.478;2022-12-05T07:59:22;16.77;;;13.83;;
15096;SDS011;7649;52.084;7.478;2022-12-05T08:01:51;16.13;;;13.20;;
15096;SDS011;7649;52.084;7.478;2022-12-05T08:04:19;16.67;;;13.47;;
15096;SDS011;7649;52.084;7.478;2022-12-05T08:06:47;14.43;;;11.90;;
15096;SDS011;7649;52.084;7.478;2022-12-05T08:09:15;18.30;;;12.83;;
15096;SDS011;7649;52.084;7.478;2022-12-05T08:11:44;15.43;;;12.07;;
15096;SDS011;7649;52.084;7.478;2022-12-05T08:14:19;16.17;;;11.90;;
15096;SDS011;7649;52.084;7.478;2022-12-05T08:16:47;14.57;;;12.07;;
15096;SDS011;7649;52.084;7.478;2022-12-05T08:19:16;16.53;;;12.37;;
15096;SDS011;7649;52.084;7.478;2022-12-05T08:21:44;14.87;;;12.20;;
15096;SDS011;7649;52.084;7.478;2022-12-05T08:24:12;14.73;;;12.03;;
15096;SDS011;7649;52.084;7.478;2022-12-05T08:26:41;14.77;;;12.33;;
15096;SDS011;7649;52.084;7.478;2022-12-05T08:29:10;16.03;;;12.27;;
15096;SDS011;7649;52.084;7.478;2022-12-05T08:31:40;15.50;;;12.80;;
15096;SDS011;7649;52.084;7.478;2022-12-05T08:34:10;16.03;;;13.27;;
15096;SDS011;7649;52.084;7.478;2022-12-05T08:36:39;15.90;;;13.10;;
15096;SDS011;7649;52.084;7.478;2022-12-05T08:39:09;16.20;;;12.70;;
15096;SDS011;7649;52.084;7.478;2022-12-05T08:41:39;16.40;;;12.53;;
15096;SDS011;7649;52.084;7.478;2022-12-05T08:44:07;16.23;;;13.50;;
15096;SDS011;7649;52.084;7.478;2022-12-05T08:46:36;15.03;;;12.27;;
15096;SDS011;7649;52.084;7.478;2022-12-05T08:49:06;16.17;;;13.10;;
15096;SDS011;7649;52.084;7.478;2022-12-05T08:51:35;16.50;;;13.80;;
15096;SDS011;7649;52.084;7.478;2022-12-05T08:54:03;18.97;;;14.57;;
15096;SDS011;7649;52.084;7.478;2022-12-05T08:56:32;17.43;;;13.63;;
15096;SDS011;7649;52.084;7.478;2022-12-05T08:59:00;16.20;;;13.80;;
15096;SDS011;7649;52.084;7.478;2022-12-05T09:01:31;16.93;;;12.80;;
15096;SDS011;7649;52.084;7.478;2022-12-05T09:04:02;18.00;;;12.50;;
15096;SDS011;7649;52.084;7.478;2022-12-05T09:06:32;17.13;;;13.07;;
15096;SDS011;7649;52.084;7.478;2022-12-05T09:09:02;17.50;;;13.67;;
15096;SDS011;7649;52.084;7.478;2022-12-05T09:11:31;20.47;;;14.20;;
15096;SDS011;7649;52.084;7.478;2022-12-05T09:14:00;18.83;;;13.60;;
15096;SDS011;7649;52.084;7.478;2022-12-05T09:16:29;18.60;;;14.30;;
15096;SDS011;7649;52.084;7.478;2022-12-05T09:19:03;19.00;;;13.30;;
15096;SDS011;7649;52.084;7.478;2022-12-05T09:21:33;18.83;;;13.53;;
15096;SDS011;7649;52.084;7.478;2022-12-05T09:24:02;20.23;;;13.63;;
15096;SDS011;7649;52.084;7.478;2022-12-05T09:26:30;16.40;;;12.83;;
15096;SDS011;7649;52.084;7.478;2022-12-05T09:28:58;16.90;;;13.60;;
15096;SDS011;7649;52.084;7.478;2022-12-05T09:31:28;17.23;;;13.27;;
15096;SDS011;7649;52.084;7.478;2022-12-05T09:33:56;18.27;;;13.67;;
15096;SDS011;7649;52.084;7.478;2022-12-05T09:36:25;15.80;;;13.00;;
15096;SDS011;7649;52.084;7.478;2022-12-05T09:38:57;15.60;;;12.53;;
15096;SDS011;7649;52.084;7.478;2022-12-05T09:44:38;18.83;;;14.40;;
15096;SDS011;7649;52.084;7.478;2022-12-05T09:47:10;15.87;;;13.23;;
15096;SDS011;7649;52.084;7.478;2022-12-05T09:49:43;13.53;;;12.00;;
15096;SDS011;7649;52.084;7.478;2022-12-05T09:52:15;13.47;;;12.07;;
15096;SDS011;7649;52.084;7.478;2022-12-05T09:54:48;14.90;;;12.17;;
15096;SDS011;7649;52.084;7.478;2022-12-05T09:57:19;15.90;;;12.53;;
15096;SDS011;7649;52.084;7.478;2022-12-05T09:59:58;16.73;;;12.63;;
15096;SDS011;7649;52.084;7.478;2022-12-05T10:02:28;15.30;;;12.33;;
15096;SDS011;7649;52.084;7.478;2022-12-05T10:05:01;18.07;;;12.40;;
15096;SDS011;7649;52.084;7.478;2022-12-05T10:07:32;14.73;;;11.77;;
15096;SDS011;7649;52.084;7.478;2022-12-05T10:10:07;15.40;;;11.60;;
15096;SDS011;7649;52.084;7.478;2022-12-05T10:12:49;15.33;;;11.60;;
15096;SDS011;7649;52.084;7.478;2022-12-05T10:15:22;15.37;;;11.97;;
15096;SDS011;7649;52.084;7.478;2022-12-05T10:17:55;16.50;;;14.30;;
15096;SDS011;7649;52.084;7.478;2022-12-05T10:20:26;12.70;;;11.30;;
15096;SDS011;7649;52.084;7.478;2022-12-05T10:22:56;12.40;;;10.67;;
15096;SDS011;7649;52.084;7.478;2022-12-05T10:25:26;13.20;;;10.40;;
15096;SDS011;7649;52.084;7.478;2022-12-05T10:27:57;14.43;;;11.47;;
15096;SDS011;7649;52.084;7.478;2022-12-05T10:30:27;13.57;;;11.03;;
15096;SDS011;7649;52.084;7.478;2022-12-05T10:32:58;12.37;;;10.83;;
15096;SDS011;7649;52.084;7.478;2022-12-05T10:35:35;12.13;;;10.57;;
15096;SDS011;7649;52.084;7.478;2022-12-05T10:38:04;11.77;;;9.63;;
15096;SDS011;7649;52.084;7.478;2022-12-05T10:40:36;11.00;;;9.07;;
15096;SDS011;7649;52.084;7.478;2022-12-05T10:43:05;11.20;;;10.10;;
15096;SDS011;7649;52.084;7.478;2022-12-05T10:45:34;13.73;;;10.87;;
15096;SDS011;7649;52.084;7.478;2022-12-05T10:48:07;12.77;;;10.47;;
15096;SDS011;7649;52.084;7.478;2022-12-05T10:50:37;11.37;;;10.00;;
15096;SDS011;7649;52.084;7.478;2022-12-05T10:53:10;11.10;;;9.87;;
15096;SDS011;7649;52.084;7.478;2022-12-05T10:55:41;12.20;;;9.80;;
15096;SDS011;7649;52.084;7.478;2022-12-05T10:58:30;14.93;;;10.60;;
15096;SDS011;7649;52.084;7.478;2022-12-05T11:01:05;11.93;;;9.87;;
15096;SDS011;7649;52.084;7.478;2022-12-05T11:03:35;11.37;;;10.20;;
15096;SDS011;7649;52.084;7.478;2022-12-05T11:06:13;12.97;;;10.27;;
15096;SDS011;7649;52.084;7.478;2022-12-05T11:08:41;11.97;;;10.20;;
15096;SDS011;7649;52.084;7.478;2022-12-05T11:11:32;11.87;;;9.60;;
15096;SDS011;7649;52.084;7.478;2022-12-05T11:14:01;10.90;;;9.80;;
15096;SDS011;7649;52.084;7.478;2022-12-05T11:16:31;11.40;;;9.73;;
15096;SDS011;7649;52.084;7.478;2022-12-05T11:19:26;10.83;;;9.20;;
15096;SDS011;7649;52.084;7.478;2022-12-05T11:21:54;13.70;;;10.67;;
15096;SDS011;7649;52.084;7.478;2022-12-05T11:24:25;12.37;;;10.27;;
15096;SDS011;7649;52.084;7.478;2022-12-05T11:26:55;11.33;;;10.13;;
15096;SDS011;7649;52.084;7.478;2022-12-05T11:29:28;11.57;;;10.37;;
15096;SDS011;7649;52.084;7.478;2022-12-05T11:31:57;11.17;;;10.03;;
15096;SDS011;7649;52.084;7.478;2022-12-05T11:34:26;11.47;;;10.27;;
15096;SDS011;7649;52.084;7.478;2022-12-05T11:36:55;10.20;;;9.20;;
15096;SDS011;7649;52.084;7.478;2022-12-05T11:39:25;10.87;;;9.83;;
15096;SDS011;7649;52.084;7.478;2022-12-05T11:42:00;9.30;;;8.33;;
15096;SDS011;7649;52.084;7.478;2022-12-05T11:44:37;9.63;;;8.63;;
15096;SDS011;7649;52.084;7.478;2022-12-05T11:47:09;9.83;;;8.83;;
15096;SDS011;7649;52.084;7.478;2022-12-05T11:49:44;9.87;;;8.87;;
15096;SDS011;7649;52.084;7.478;2022-12-05T11:52:19;10.20;;;8.30;;
15096;SDS011;7649;52.084;7.478;2022-12-05T11:54:54;9.30;;;8.40;;
15096;SDS011;7649;52.084;7.478;2022-12-05T11:57:43;9.47;;;8.57;;
15096;SDS011;7649;52.084;7.478;2022-12-05T12:00:18;10.63;;;9.53;;
15096;SDS011;7649;52.084;7.478;2022-12-05T12:03:02;9.73;;;8.73;;
15096;SDS011;7649;52.084;7.478;2022-12-05T12:05:33;11.23;;;9.07;;
15096;SDS011;7649;52.084;7.478;2022-12-05T12:08:08;11.27;;;9.87;;
15096;SDS011;7649;52.084;7.478;2022-12-05T12:10:41;9.67;;;8.67;;
15096;SDS011;7649;52.084;7.478;2022-12-05T12:13:22;9.83;;;8.83;;
15096;SDS011;7649;52.084;7.478;2022-12-05T12:15:57;10.20;;;9.13;;
15096;SDS011;7649;52.084;7.478;2022-12-05T12:18:41;9.73;;;8.73;;
15096;SDS011;7649;52.084;7.478;2022-12-05T12:21:15;10.10;;;9.00;;
15096;SDS011;7649;52.084;7.478;2022-12-05T12:23:48;11.90;;;10.23;;
15096;SDS011;7649;52.084;7.478;2022-12-05T12:26:24;11.37;;;9.73;;
15096;SDS011;7649;52.084;7.478;2022-12-05T12:29:01;10.80;;;9.30;;
15096;SDS011;7649;52.084;7.478;2022-12-05T12:37:02;11.30;;;9.47;;
15096;SDS011;7649;52.084;7.478;2022-12-05T12:39:35;8.63;;;7.77;;
15096;SDS011;7649;52.084;7.478;2022-12-05T12:42:08;9.53;;;8.20;;
15096;SDS011;7649;52.084;7.478;2022-12-05T12:44:48;9.60;;;8.60;;
15096;SDS011;7649;52.084;7.478;2022-12-05T12:47:22;9.27;;;8.17;;
15096;SDS011;7649;52.084;7.478;2022-12-05T12:49:55;8.77;;;7.93;;
15096;SDS011;7649;52.084;7.478;2022-12-05T12:52:27;9.67;;;8.67;;
15096;SDS011;7649;52.084;7.478;2022-12-05T12:55:02;11.93;;;8.70;;
15096;SDS011;7649;52.084;7.478;2022-12-05T12:57:39;9.13;;;8.23;;
15096;SDS011;7649;52.084;7.478;2022-12-05T13:00:18;12.20;;;8.93;;
15096;SDS011;7649;52.084;7.478;2022-12-05T13:02:48;10.10;;;8.40;;
15096;SDS011;7649;52.084;7.478;2022-12-05T13:05:20;8.77;;;7.97;;
15096;SDS011;7649;52.084;7.478;2022-12-05T13:07:50;9.50;;;8.50;;
15096;SDS011;7649;52.084;7.478;2022-12-05T13:10:22;9.50;;;8.50;;
15096;SDS011;7649;52.084;7.478;2022-12-05T13:12:52;8.97;;;8.07;;
15096;SDS011;7649;52.084;7.478;2022-12-05T13:15:26;10.27;;;8.63;;
15096;SDS011;7649;52.084;7.478;2022-12-05T13:17:55;10.17;;;8.83;;
15096;SDS011;7649;52.084;7.478;2022-12-05T13:20:24;9.73;;;8.73;;
15096;SDS011;7649;52.084;7.478;2022-12-05T13:22:55;9.37;;;8.40;;
15096;SDS011;7649;52.084;7.478;2022-12-05T13:25:31;9.97;;;8.87;;
15096;SDS011;7649;52.084;7.478;2022-12-05T13:28:01;10.10;;;9.10;;
15096;SDS011;7649;52.084;7.478;2022-12-05T13:30:32;8.90;;;8.00;;
15096;SDS011;7649;52.084;7.478;2022-12-05T13:33:21;9.20;;;7.93;;
15096;SDS011;7649;52.084;7.478;2022-12-05T13:35:53;10.83;;;8.80;;
15096;SDS011;7649;52.084;7.478;2022-12-05T13:38:42;10.60;;;8.47;;
15096;SDS011;7649;52.084;7.478;2022-12-05T13:41:37;10.20;;;8.70;;
15096;SDS011;7649;52.084;7.478;2022-12-05T13:44:28;9.50;;;8.50;;
15096;SDS011;7649;52.084;7.478;2022-12-05T13:46:59;10.47;;;8.80;;
15096;SDS011;7649;52.084;7.478;2022-12-05T13:49:35;10.00;;;8.97;;
15096;SDS011;7649;52.084;7.478;2022-12-05T13:52:05;9.40;;;8.50;;
15096;SDS011;7649;52.084;7.478;2022-12-05T13:54:35;9.63;;;8.43;;
15096;SDS011;7649;52.084;7.478;2022-12-05T13:59:59;9.60;;;8.27;;
15096;SDS011;7649;52.084;7.478;2022-12-05T14:05:39;9.97;;;8.97;;
15096;SDS011;7649;52.084;7.478;2022-12-05T14:11:08;8.53;;;7.70;;
15096;SDS011;7649;52.084;7.478;2022-12-05T14:13:38;9.67;;;7.50;;
15096;SDS011;7649;52.084;7.478;2022-12-05T14:18:56;7.47;;;6.63;;
15096;SDS011;7649;52.084;7.478;2022-12-05T14:21:33;7.93;;;7.13;;
15096;SDS011;7649;52.084;7.478;2022-12-05T14:24:05;8.30;;;7.20;;
15096;SDS011;7649;52.084;7.478;2022-12-05T14:26:38;8.47;;;7.57;;
15096;SDS011;7649;52.084;7.478;2022-12-05T14:29:22;7.63;;;6.93;;
15096;SDS011;7649;52.084;7.478;2022-12-05T14:32:00;8.63;;;7.60;;
15096;SDS011;7649;52.084;7.478;2022-12-05T14:34:31;7.20;;;6.50;;
15096;SDS011;7649;52.084;7.478;2022-12-05T14:37:02;7.33;;;6.63;;
15096;SDS011;7649;52.084;7.478;2022-12-05T14:39:32;7.30;;;6.60;;
15096;SDS011;7649;52.084;7.478;2022-12-05T14:42:03;9.30;;;8.33;;
15096;SDS011;7649;52.084;7.478;2022-12-05T14:44:32;9.90;;;9.00;;
15096;SDS011;7649;52.084;7.478;2022-12-05T14:47:02;11.97;;;10.03;;
15096;SDS011;7649;52.084;7.478;2022-12-05T14:49:42;9.80;;;8.77;;
15096;SDS011;7649;52.084;7.478;2022-12-05T14:52:20;14.80;;;12.57;;
15096;SDS011;7649;52.084;7.478;2022-12-05T14:54:50;11.50;;;10.30;;
15096;SDS011;7649;52.084;7.478;2022-12-05T14:57:19;9.13;;;8.17;;
15096;SDS011;7649;52.084;7.478;2022-12-05T14:59:49;9.90;;;8.40;;
15096;SDS011;7649;52.084;7.478;2022-12-05T15:02:19;9.57;;;8.57;;
15096;SDS011;7649;52.084;7.478;2022-12-05T15:04:50;10.97;;;8.97;;
15096;SDS011;7649;52.084;7.478;2022-12-05T15:07:25;13.30;;;12.00;;
15096;SDS011;7649;52.084;7.478;2022-12-05T15:09:58;14.27;;;12.83;;
15096;SDS011;7649;52.084;7.478;2022-12-05T15:12:38;10.70;;;8.90;;
15096;SDS011;7649;52.084;7.478;2022-12-05T15:15:13;10.80;;;9.70;;
15096;SDS011;7649;52.084;7.478;2022-12-05T15:17:44;11.93;;;9.50;;
15096;SDS011;7649;52.084;7.478;2022-12-05T15:20:14;10.93;;;9.27;;
15096;SDS011;7649;52.084;7.478;2022-12-05T15:22:45;11.20;;;9.63;;
15096;SDS011;7649;52.084;7.478;2022-12-05T15:25:14;10.73;;;9.63;;
15096;SDS011;7649;52.084;7.478;2022-12-05T15:27:50;12.03;;;9.53;;